ROMMA est une association bénévole à but non lucratif. Votre soutien est indispensable : ADHERER à ROMMA ou FAIRE un DON

Le Versoud - (38, Isère)

Vallée du Grésivaudan (220 m)   Longitude: 05° 51' 44" E   Latitude: 45° 13' 06" N Station partenaire n°6
 

Détail journalier du     <<     >>

Température Humidité Pression Vent Dir Rafale Dir. rafale Ensol.
Heure (°C) (%) (hPa) (km/h) (km/h) (min)
01:00 24.480101700---0
02:00 23.683101700---0
03:00 22.784101700---0
04:00 22.286101700---0
05:00 21.788101700---0
06:00 20.989101700---0
07:00 21.388101700---0
08:00 24.076101700---50
09:00 25.665101700---60
10:00 27.361101700---60
11:00 29.555101700---60
12:00 31.350101608NNO60
13:00 32.549101508NNO45
14:00 33.946101505NNE0
15:00 34.146101408N35
16:00 35.24610141N8N60
17:00 36.442101308N60
18:00 36.444101308N60
19:00 36.945101203N60
20:00 35.953101200---60
21:00 31.862101302N25
22:00 29.374101302NNE0
23:00 27.875101400---0
minuit 26.970101400---0

Graphique du 28-06-2019

 

Serveur OMMA